Time;durP1;ratioP1;P1;durP2;ratioP2;P2;SDS_P1;SDS_P2;PMS_P1;PMS_P2;Temp;Humidity;BMP_temperature;BMP_pressure;BME280_temperature;BME280_humidity;BME280_pressure;Samples;Min_cycle;Max_cycle;Signal;HPM_P1;HPM_P2
2021/12/27 00:02:22;;;;;;;17.70;13.10;;;0.20;95.80;;;;;;5071049;28;20500;-75
2021/12/27 00:04:47;;;;;;;18.23;13.05;;;0.20;95.70;;;;;;5055947;28;20122;-71
2021/12/27 00:07:14;;;;;;;19.73;13.27;;;0.20;96.00;;;;;;5071595;28;20055;-76
2021/12/27 00:09:41;;;;;;;18.90;13.48;;;0.20;96.00;;;;;;5071998;28;20083;-75
2021/12/27 00:12:07;;;;;;;19.00;12.93;;;0.20;96.00;;;;;;5070206;28;20561;-76
2021/12/27 00:14:33;;;;;;;18.30;12.75;;;0.30;95.80;;;;;;5073786;28;20096;-76
2021/12/27 00:16:59;;;;;;;17.95;12.57;;;0.30;95.80;;;;;;5076966;28;20432;-75
2021/12/27 00:19:24;;;;;;;18.48;12.80;;;0.30;95.80;;;;;;5076400;28;20551;-75
2021/12/27 00:21:50;;;;;;;18.33;13.15;;;0.30;96.00;;;;;;5059267;28;20074;-76
2021/12/27 00:24:15;;;;;;;19.17;12.55;;;0.30;95.90;;;;;;5076576;28;20051;-80
2021/12/27 00:26:41;;;;;;;20.25;13.18;;;0.30;96.20;;;;;;5076050;28;20146;-79
2021/12/27 00:29:07;;;;;;;19.23;12.85;;;0.30;96.00;;;;;;5075925;28;20043;-75
2021/12/27 00:31:32;;;;;;;19.75;13.70;;;0.40;95.90;;;;;;5075996;28;20047;-82
2021/12/27 00:33:58;;;;;;;20.35;13.98;;;0.40;96.00;;;;;;5076280;28;20048;-79
2021/12/27 00:36:24;;;;;;;20.15;13.98;;;0.40;95.90;;;;;;5057744;28;20044;-80
2021/12/27 00:38:49;;;;;;;18.38;13.50;;;0.40;95.90;;;;;;5045651;28;20083;-80
2021/12/27 00:41:15;;;;;;;21.17;14.18;;;0.40;96.00;;;;;;5071570;28;20048;-79
2021/12/27 00:43:40;;;;;;;19.60;13.30;;;0.50;96.00;;;;;;5075475;28;20044;-80
2021/12/27 00:46:06;;;;;;;18.48;13.00;;;0.40;96.00;;;;;;5076344;28;20040;-69
2021/12/27 00:48:32;;;;;;;17.42;12.45;;;0.50;96.00;;;;;;5075626;28;20450;-73
2021/12/27 00:50:57;;;;;;;19.42;13.20;;;0.50;96.00;;;;;;5075028;28;20048;-73
2021/12/27 00:53:23;;;;;;;19.48;13.85;;;0.50;96.00;;;;;;5059154;28;20075;-77
2021/12/27 00:55:49;;;;;;;21.20;14.77;;;0.50;96.00;;;;;;5058740;28;20551;-77
2021/12/27 00:58:15;;;;;;;22.67;13.77;;;0.60;96.10;;;;;;5075298;28;20044;-78
2021/12/27 01:00:41;;;;;;;19.33;13.55;;;0.50;96.20;;;;;;5075473;28;20127;-77
2021/12/27 01:03:07;;;;;;;19.73;13.50;;;0.50;96.10;;;;;;5043977;28;20052;-77
2021/12/27 01:05:32;;;;;;;21.20;13.80;;;0.50;96.20;;;;;;5068199;28;20058;-73
2021/12/27 01:07:59;;;;;;;19.05;13.75;;;0.60;96.20;;;;;;5072617;28;20495;-73
2021/12/27 01:11:22;;;;;;;20.05;13.52;;;0.60;96.20;;;;;;5059051;28;20032;-73
2021/12/27 01:13:25;;;;;;;20.73;13.85;;;0.60;96.30;;;;;;5064721;28;20558;-77
2021/12/27 01:16:10;;;;;;;20.65;13.57;;;0.60;96.40;;;;;;5075459;28;20083;-77
2021/12/27 01:18:48;;;;;;;19.60;14.23;;;0.60;96.30;;;;;;5075047;28;20039;-79
2021/12/27 01:21:19;;;;;;;22.38;14.27;;;0.60;96.40;;;;;;5065508;28;20059;-78
2021/12/27 01:23:46;;;;;;;21.58;13.82;;;0.60;96.30;;;;;;5075162;28;20131;-77
2021/12/27 01:26:12;;;;;;;19.17;13.70;;;0.70;96.20;;;;;;5074195;28;20036;-77
2021/12/27 01:28:38;;;;;;;22.05;14.30;;;0.70;96.20;;;;;;5075659;28;20055;-74
2021/12/27 01:31:04;;;;;;;21.13;14.90;;;0.70;96.60;;;;;;5046269;28;20794;-76
2021/12/27 01:33:31;;;;;;;20.38;14.40;;;0.70;96.50;;;;;;5065906;28;20058;-76
2021/12/27 01:35:57;;;;;;;19.92;14.55;;;0.70;96.90;;;;;;5072507;28;20076;-71
2021/12/27 01:38:23;;;;;;;20.75;14.23;;;0.70;96.80;;;;;;5058395;28;20075;-76
2021/12/27 01:40:53;;;;;;;20.15;14.48;;;0.70;96.80;;;;;;5073960;28;20044;-76
2021/12/27 01:43:25;;;;;;;20.25;14.70;;;0.70;97.00;;;;;;5058339;28;20048;-77
2021/12/27 01:45:56;;;;;;;19.73;14.35;;;0.70;97.10;;;;;;5074234;28;20500;-77
2021/12/27 01:48:28;;;;;;;19.60;15.18;;;0.70;97.20;;;;;;5074278;28;20044;-76
2021/12/27 01:50:56;;;;;;;21.77;16.17;;;0.70;97.30;;;;;;5074456;28;20044;-75
2021/12/27 01:53:24;;;;;;;21.52;15.35;;;0.70;97.50;;;;;;5074389;28;20040;-76
2021/12/27 01:55:51;;;;;;;22.65;15.40;;;0.70;97.80;;;;;;5057812;28;20047;-76
2021/12/27 01:58:18;;;;;;;21.70;15.23;;;0.60;97.70;;;;;;5057624;28;20044;-76
2021/12/27 02:00:46;;;;;;;21.55;15.30;;;0.70;97.80;;;;;;5073472;28;20036;-78
2021/12/27 02:03:15;;;;;;;24.13;15.60;;;0.70;97.70;;;;;;5058205;28;20083;-79
2021/12/27 02:05:40;;;;;;;23.85;15.63;;;0.70;97.70;;;;;;5056846;28;20043;-77
2021/12/27 02:08:06;;;;;;;23.30;16.08;;;0.70;97.80;;;;;;5057135;28;20040;-81
2021/12/27 02:10:32;;;;;;;22.77;16.08;;;0.70;97.80;;;;;;5074481;28;20446;-81
2021/12/27 02:12:59;;;;;;;22.10;15.73;;;0.70;98.30;;;;;;5057992;28;20483;-76
2021/12/27 02:15:24;;;;;;;23.98;16.75;;;0.70;98.20;;;;;;5072920;28;20040;-82
2021/12/27 02:17:50;;;;;;;22.33;16.08;;;0.70;98.30;;;;;;5074184;28;20046;-81
2021/12/27 02:20:37;;;;;;;21.30;14.65;;;0.60;98.30;;;;;;5073756;28;20038;-81
2021/12/27 02:23:11;;;;;;;21.48;16.00;;;0.70;98.40;;;;;;5052586;28;20084;-79
2021/12/27 02:25:37;;;;;;;24.65;16.98;;;0.70;98.30;;;;;;5043927;28;20426;-80
2021/12/27 02:28:06;;;;;;;20.98;16.48;;;0.70;98.20;;;;;;5056856;28;20093;-80
2021/12/27 02:30:32;;;;;;;24.25;15.98;;;0.70;98.30;;;;;;5073632;28;20065;-82
2021/12/27 02:33:03;;;;;;;24.90;16.35;;;0.70;98.40;;;;;;5073661;28;20097;-72
2021/12/27 02:35:35;;;;;;;24.05;15.93;;;0.70;98.30;;;;;;5072775;28;20048;-71
2021/12/27 02:38:02;;;;;;;22.58;16.30;;;0.70;98.30;;;;;;5070533;28;20048;-79
2021/12/27 02:40:30;;;;;;;26.08;17.15;;;0.70;98.60;;;;;;5073561;28;20444;-72
2021/12/27 02:43:04;;;;;;;27.25;18.13;;;0.70;98.80;;;;;;5056083;28;20079;-79
2021/12/27 02:45:32;;;;;;;25.08;17.63;;;0.70;99.00;;;;;;5057304;28;20059;-79
2021/12/27 02:47:59;;;;;;;26.67;18.02;;;0.70;99.40;;;;;;5091477;28;20412;-70
2021/12/27 02:50:26;;;;;;;26.70;18.95;;;0.70;99.40;;;;;;5052345;28;20131;-80
2021/12/27 02:52:52;;;;;;;25.92;18.38;;;0.70;99.70;;;;;;5071964;28;20032;-69
2021/12/27 02:55:19;;;;;;;26.27;18.88;;;0.70;99.70;;;;;;5073235;28;20043;-68
2021/12/27 02:57:46;;;;;;;31.02;20.42;;;0.60;99.90;;;;;;5072619;28;20048;-78
2021/12/27 03:00:34;;;;;;;25.67;18.98;;;0.60;99.90;;;;;;5073170;28;20500;-77
2021/12/27 03:03:00;;;;;;;28.85;18.67;;;0.70;99.90;;;;;;5073205;28;20519;-77
2021/12/27 03:05:28;;;;;;;31.08;19.98;;;0.70;99.90;;;;;;5070257;28;20083;-80
2021/12/27 03:07:54;;;;;;;27.98;20.50;;;0.70;99.90;;;;;;5073562;28;20040;-83
2021/12/27 03:10:25;;;;;;;28.98;19.48;;;0.70;99.90;;;;;;5073027;28;20067;-81
2021/12/27 03:12:52;;;;;;;26.98;19.30;;;0.60;99.90;;;;;;5073809;28;20051;-72
2021/12/27 03:15:20;;;;;;;29.00;19.15;;;0.60;99.90;;;;;;5056014;28;20052;-69
2021/12/27 03:17:48;;;;;;;29.27;19.77;;;0.70;99.90;;;;;;5072481;28;20507;-80
2021/12/27 03:20:15;;;;;;;29.48;20.25;;;0.60;99.90;;;;;;5040711;28;20036;-80
2021/12/27 03:22:41;;;;;;;29.20;19.77;;;0.60;99.90;;;;;;5073164;28;20048;-69
2021/12/27 03:25:09;;;;;;;26.70;19.85;;;0.60;99.90;;;;;;5072356;28;20040;-69
2021/12/27 03:27:35;;;;;;;31.17;20.50;;;0.70;99.90;;;;;;5073626;28;20048;-82
2021/12/27 03:30:03;;;;;;;28.95;20.88;;;0.60;99.90;;;;;;5091271;28;20039;-84
2021/12/27 03:32:31;;;;;;;30.02;20.40;;;0.70;99.90;;;;;;5072305;28;20048;-82
2021/12/27 03:35:07;;;;;;;29.60;20.60;;;0.70;99.90;;;;;;5072296;28;20040;-82
2021/12/27 03:37:33;;;;;;;28.08;19.80;;;0.70;99.90;;;;;;5072596;28;20101;-83
2021/12/27 03:39:58;;;;;;;31.40;20.70;;;0.70;99.90;;;;;;5072055;28;20044;-69
2021/12/27 03:42:24;;;;;;;28.40;20.25;;;0.70;99.90;;;;;;5072978;28;20048;-82
2021/12/27 03:44:49;;;;;;;27.67;19.90;;;0.70;99.90;;;;;;5073141;28;20441;-82
2021/12/27 03:47:17;;;;;;;30.80;20.80;;;0.70;99.90;;;;;;5054992;28;20051;-82
2021/12/27 03:49:43;;;;;;;29.45;20.40;;;0.70;99.90;;;;;;5072003;28;20052;-78
2021/12/27 03:52:08;;;;;;;30.13;20.35;;;0.70;99.90;;;;;;5073371;28;20571;-82
2021/12/27 03:54:34;;;;;;;27.88;19.92;;;0.70;99.90;;;;;;5072065;28;20044;-83
2021/12/27 03:57:00;;;;;;;31.75;20.58;;;0.70;99.90;;;;;;5072607;28;20036;-83
2021/12/27 04:02:13;;;;;;;28.38;19.58;;;0.80;99.90;;;;;;5032299;28;20040;-83
2021/12/27 04:04:40;;;;;;;30.85;19.98;;;0.80;99.90;;;;;;5071960;28;20045;-83
2021/12/27 04:07:08;;;;;;;29.85;20.27;;;0.80;99.90;;;;;;5071872;28;20040;-82
2021/12/27 04:09:38;;;;;;;28.00;20.23;;;0.80;99.90;;;;;;5072965;28;20081;-83
2021/12/27 04:12:04;;;;;;;28.27;19.50;;;0.80;99.90;;;;;;5072678;28;20047;-83
2021/12/27 04:14:30;;;;;;;31.58;21.52;;;0.80;99.90;;;;;;5055580;28;20048;-83
2021/12/27 04:16:55;;;;;;;30.02;19.33;;;0.80;99.90;;;;;;5072834;28;20407;-71
2021/12/27 04:19:21;;;;;;;29.02;19.60;;;0.80;99.90;;;;;;5068679;28;20133;-81
2021/12/27 04:21:47;;;;;;;29.58;20.88;;;0.80;99.90;;;;;;5049640;28;20047;-80
2021/12/27 04:24:13;;;;;;;27.27;19.77;;;0.80;99.90;;;;;;5072487;28;20451;-79
2021/12/27 04:26:39;;;;;;;28.20;19.35;;;0.80;99.90;;;;;;5054555;28;20075;-79
2021/12/27 04:29:06;;;;;;;28.80;20.23;;;0.80;99.90;;;;;;5068807;28;20123;-78
2021/12/27 04:31:32;;;;;;;28.33;20.15;;;0.80;99.90;;;;;;5086787;28;20105;-80
2021/12/27 04:33:57;;;;;;;32.40;21.15;;;0.80;99.90;;;;;;5072085;28;20056;-77
2021/12/27 04:36:23;;;;;;;30.90;20.80;;;0.80;99.90;;;;;;5071120;28;20101;-80
2021/12/27 04:38:49;;;;;;;29.27;20.40;;;0.80;99.90;;;;;;5054755;28;20494;-79
2021/12/27 04:41:18;;;;;;;30.75;20.77;;;0.80;99.90;;;;;;5055420;28;20523;-79
2021/12/27 04:43:43;;;;;;;29.58;20.27;;;0.90;99.90;;;;;;5071410;28;20047;-79
2021/12/27 04:46:09;;;;;;;28.90;21.20;;;0.90;99.90;;;;;;5055263;28;20044;-79
2021/12/27 04:48:35;;;;;;;30.48;21.25;;;0.90;99.90;;;;;;5055502;28;20047;-79
2021/12/27 04:51:00;;;;;;;30.02;20.73;;;0.80;99.90;;;;;;5071710;28;20052;-83
2021/12/27 04:53:26;;;;;;;29.60;20.65;;;0.90;99.90;;;;;;5072496;28;20032;-84
2021/12/27 04:55:52;;;;;;;28.95;20.67;;;0.80;99.90;;;;;;5054928;28;20416;-83
2021/12/27 04:58:21;;;;;;;30.58;19.73;;;0.90;99.90;;;;;;5071622;28;20412;-74
2021/12/27 05:00:48;;;;;;;29.75;20.00;;;0.90;99.90;;;;;;5085297;28;20104;-84
2021/12/27 05:03:14;;;;;;;33.55;22.50;;;0.90;99.90;;;;;;5075871;28;20043;-84
2021/12/27 05:05:43;;;;;;;33.83;21.92;;;0.80;99.90;;;;;;5075675;28;20088;-83
2021/12/27 05:08:10;;;;;;;29.88;20.08;;;0.90;99.90;;;;;;5076113;28;20074;-83
2021/12/27 05:10:36;;;;;;;32.38;21.83;;;0.90;99.90;;;;;;5075378;28;20044;-87
2021/12/27 05:13:02;;;;;;;29.85;21.13;;;0.90;99.90;;;;;;5075724;28;20558;-85
2021/12/27 05:15:28;;;;;;;31.45;19.88;;;0.90;99.90;;;;;;5076066;28;20044;-69
2021/12/27 05:17:53;;;;;;;31.48;21.20;;;0.90;99.90;;;;;;5057937;28;20097;-78
2021/12/27 05:20:19;;;;;;;31.20;21.25;;;0.90;99.90;;;;;;5057598;28;20040;-78
2021/12/27 05:22:45;;;;;;;31.80;22.38;;;0.90;99.90;;;;;;5057797;28;20492;-80
2021/12/27 05:25:12;;;;;;;29.20;21.80;;;0.90;99.90;;;;;;5057822;28;20101;-80
2021/12/27 05:27:39;;;;;;;34.92;22.40;;;0.90;99.90;;;;;;5058054;28;20463;-79
2021/12/27 05:30:07;;;;;;;30.52;21.02;;;0.80;99.90;;;;;;5075474;28;20048;-75
2021/12/27 05:32:35;;;;;;;36.42;23.17;;;0.90;99.90;;;;;;5071593;28;20059;-83
2021/12/27 05:35:01;;;;;;;32.25;22.15;;;0.90;99.90;;;;;;5089904;28;20056;-82
2021/12/27 05:37:27;;;;;;;39.28;23.48;;;0.90;99.90;;;;;;5075146;28;20040;-83
2021/12/27 05:39:53;;;;;;;40.78;23.85;;;0.90;99.90;;;;;;5074904;28;20089;-83
2021/12/27 05:42:18;;;;;;;35.03;23.55;;;0.90;99.90;;;;;;5074984;28;20051;-70
2021/12/27 05:44:44;;;;;;;36.45;24.75;;;0.90;99.90;;;;;;5093034;28;20047;-81
2021/12/27 05:47:09;;;;;;;36.03;23.48;;;0.90;99.90;;;;;;5073783;28;20040;-81
2021/12/27 05:49:35;;;;;;;40.00;24.95;;;0.90;99.90;;;;;;5074855;28;20105;-81
2021/12/27 05:52:01;;;;;;;43.63;25.08;;;0.90;99.90;;;;;;5074015;28;20157;-80
2021/12/27 05:54:26;;;;;;;41.63;24.42;;;1.00;99.90;;;;;;5057887;28;20036;-80
2021/12/27 05:56:52;;;;;;;41.97;25.73;;;1.00;99.90;;;;;;5074716;28;20040;-79
2021/12/27 05:59:17;;;;;;;46.15;27.05;;;1.00;99.90;;;;;;5057473;28;20070;-81
2021/12/27 06:01:45;;;;;;;47.58;26.52;;;0.90;99.90;;;;;;5057574;28;20071;-81
2021/12/27 06:04:10;;;;;;;44.05;26.75;;;1.00;99.90;;;;;;5073781;28;20063;-81
2021/12/27 06:06:36;;;;;;;46.80;26.48;;;0.90;99.90;;;;;;5057927;28;20500;-73
2021/12/27 06:09:04;;;;;;;45.70;26.25;;;1.00;99.90;;;;;;5074101;28;20072;-81
2021/12/27 06:11:30;;;;;;;49.80;26.73;;;1.00;99.90;;;;;;5057430;28;20048;-79
2021/12/27 06:13:55;;;;;;;48.83;25.15;;;1.00;99.90;;;;;;5057093;28;20032;-80
2021/12/27 06:16:21;;;;;;;45.88;27.10;;;1.00;99.90;;;;;;5074390;28;20566;-80
2021/12/27 06:18:47;;;;;;;42.47;25.13;;;1.00;99.90;;;;;;5073473;28;20043;-79
2021/12/27 06:21:13;;;;;;;45.28;26.27;;;1.00;99.90;;;;;;5073613;28;20473;-80
2021/12/27 06:23:39;;;;;;;43.58;25.90;;;1.10;99.90;;;;;;5074063;28;20050;-79
2021/12/27 06:26:05;;;;;;;46.10;25.90;;;1.00;99.90;;;;;;5038787;28;20043;-73
2021/12/27 06:28:34;;;;;;;49.63;27.48;;;1.10;99.90;;;;;;5071251;28;20426;-77
2021/12/27 06:31:02;;;;;;;46.03;27.83;;;1.10;99.90;;;;;;5065463;28;20052;-76
2021/12/27 06:33:28;;;;;;;54.92;27.60;;;1.10;99.90;;;;;;5073668;28;20048;-70
2021/12/27 06:35:54;;;;;;;54.83;27.15;;;1.10;99.90;;;;;;5073589;28;20151;-77
2021/12/27 06:38:23;;;;;;;49.28;26.67;;;1.10;99.90;;;;;;5054606;28;20098;-77
2021/12/27 06:40:50;;;;;;;55.65;28.05;;;1.10;99.90;;;;;;5056914;28;20052;-77
2021/12/27 06:43:15;;;;;;;54.42;27.70;;;1.10;99.90;;;;;;5073300;28;20040;-83
2021/12/27 06:45:41;;;;;;;61.15;29.15;;;1.10;99.90;;;;;;5073154;28;20180;-84
2021/12/27 06:48:07;;;;;;;65.53;30.88;;;1.10;99.90;;;;;;5073261;28;20451;-78
2021/12/27 06:50:32;;;;;;;58.22;28.40;;;1.10;99.90;;;;;;5073266;28;20109;-76
2021/12/27 06:52:58;;;;;;;66.45;29.23;;;1.10;99.90;;;;;;5073272;28;20604;-71
2021/12/27 06:55:24;;;;;;;66.75;28.42;;;1.10;99.90;;;;;;5073058;28;20055;-76
2021/12/27 06:57:49;;;;;;;66.40;29.05;;;1.20;99.90;;;;;;5056681;28;20173;-76
2021/12/27 07:00:16;;;;;;;77.28;30.48;;;1.20;99.90;;;;;;5056023;28;20044;-69
2021/12/27 07:02:43;;;;;;;73.00;30.05;;;1.20;99.90;;;;;;5055840;28;20086;-76
2021/12/27 07:05:09;;;;;;;71.53;30.50;;;1.20;99.90;;;;;;5073990;28;20048;-70
2021/12/27 07:07:35;;;;;;;76.72;31.30;;;1.20;99.90;;;;;;5067002;28;20051;-77
2021/12/27 07:10:05;;;;;;;78.30;30.67;;;1.20;99.90;;;;;;5073262;28;20044;-81
2021/12/27 07:12:30;;;;;;;69.78;29.05;;;1.20;99.90;;;;;;5073039;28;20366;-81
2021/12/27 07:14:56;;;;;;;89.75;31.95;;;1.20;99.90;;;;;;5073412;28;20051;-86
2021/12/27 07:17:22;;;;;;;112.03;34.05;;;1.20;99.90;;;;;;5072828;28;20040;-82
2021/12/27 07:19:47;;;;;;;113.68;33.40;;;1.20;99.90;;;;;;5071965;28;20054;-73
2021/12/27 07:22:13;;;;;;;80.93;31.17;;;1.20;99.90;;;;;;5068586;28;20043;-71
2021/12/27 07:24:39;;;;;;;92.85;30.98;;;1.20;99.90;;;;;;5066400;28;20154;-81
2021/12/27 07:27:05;;;;;;;75.00;28.38;;;1.20;99.90;;;;;;5055789;28;20071;-79
2021/12/27 07:29:30;;;;;;;105.85;33.08;;;1.20;99.90;;;;;;5069624;28;20048;-81
2021/12/27 07:31:56;;;;;;;126.85;33.95;;;1.20;99.90;;;;;;5066473;28;20040;-81
2021/12/27 07:34:24;;;;;;;88.88;30.58;;;1.30;99.90;;;;;;5072110;28;20055;-78
2021/12/27 07:36:51;;;;;;;101.55;32.45;;;1.30;99.90;;;;;;5071266;28;20052;-80
2021/12/27 07:39:18;;;;;;;102.93;32.03;;;1.30;99.90;;;;;;5070862;28;20048;-77
2021/12/27 07:41:44;;;;;;;112.50;33.83;;;1.30;99.90;;;;;;5056019;28;20051;-80
2021/12/27 07:44:10;;;;;;;107.10;33.50;;;1.30;99.90;;;;;;5070287;28;20040;-80
2021/12/27 07:46:40;;;;;;;119.50;34.10;;;1.30;99.90;;;;;;5071980;28;20040;-69
2021/12/27 07:49:06;;;;;;;117.30;34.92;;;1.30;99.90;;;;;;5059706;28;20059;-74
2021/12/27 07:51:32;;;;;;;113.68;33.63;;;1.30;99.90;;;;;;5070885;28;20040;-78
2021/12/27 07:53:58;;;;;;;110.32;33.15;;;1.30;99.90;;;;;;5064532;28;20055;-76
2021/12/27 07:56:23;;;;;;;91.25;31.10;;;1.30;99.90;;;;;;5055841;28;20048;-77
2021/12/27 07:58:49;;;;;;;121.47;31.85;;;1.30;99.90;;;;;;5070776;28;20044;-78
2021/12/27 08:01:16;;;;;;;91.80;31.35;;;1.40;99.90;;;;;;5071999;28;20114;-72
2021/12/27 08:03:42;;;;;;;85.80;32.28;;;1.40;99.90;;;;;;5059459;28;20048;-78
2021/12/27 08:06:08;;;;;;;86.47;31.83;;;1.40;99.90;;;;;;5054412;28;20086;-71
2021/12/27 08:08:33;;;;;;;93.00;31.10;;;1.40;99.90;;;;;;5072477;28;20140;-79
2021/12/27 08:10:59;;;;;;;84.43;31.13;;;1.40;99.90;;;;;;5072655;28;20044;-78
2021/12/27 08:13:24;;;;;;;59.38;27.45;;;1.40;99.90;;;;;;5066034;28;20071;-77
2021/12/27 08:15:51;;;;;;;90.70;31.08;;;1.50;99.90;;;;;;5069103;28;20042;-78
2021/12/27 08:18:17;;;;;;;95.00;30.83;;;1.50;99.90;;;;;;5067242;28;20051;-79
2021/12/27 08:20:43;;;;;;;86.85;30.83;;;1.50;99.90;;;;;;5065479;28;20040;-78
2021/12/27 08:23:09;;;;;;;91.80;31.35;;;1.50;99.90;;;;;;5072113;28;20063;-76
2021/12/27 08:25:37;;;;;;;98.50;32.20;;;1.60;99.90;;;;;;5072571;28;20088;-70
2021/12/27 08:28:04;;;;;;;100.68;32.17;;;1.60;99.90;;;;;;5069738;28;20064;-76
2021/12/27 08:30:31;;;;;;;93.10;30.08;;;1.60;99.90;;;;;;5070940;28;20552;-70
2021/12/27 08:32:59;;;;;;;89.45;30.85;;;1.70;99.90;;;;;;5067364;28;20055;-70
2021/12/27 08:35:25;;;;;;;90.53;30.27;;;1.60;99.90;;;;;;5072906;28;20054;-77
2021/12/27 08:37:51;;;;;;;84.85;30.02;;;1.70;99.90;;;;;;5058008;28;20072;-70
2021/12/27 08:40:17;;;;;;;86.93;30.33;;;1.70;99.90;;;;;;5076049;28;20091;-77
2021/12/27 08:42:43;;;;;;;89.53;30.52;;;1.70;99.90;;;;;;5053642;28;20058;-76
2021/12/27 08:45:09;;;;;;;87.00;28.90;;;1.70;99.90;;;;;;5059404;28;20071;-71
2021/12/27 08:47:35;;;;;;;76.00;27.10;;;1.70;99.90;;;;;;5055079;28;20047;-70
2021/12/27 08:50:02;;;;;;;76.03;28.10;;;1.70;99.90;;;;;;5058238;28;20442;-79
2021/12/27 08:52:29;;;;;;;84.82;30.13;;;1.70;99.90;;;;;;5074661;28;20048;-72
2021/12/27 08:54:55;;;;;;;92.40;28.98;;;1.80;99.90;;;;;;5074993;28;20077;-79
2021/12/27 08:57:21;;;;;;;79.13;28.02;;;1.80;99.90;;;;;;5074747;28;20055;-81
2021/12/27 08:59:47;;;;;;;109.45;29.15;;;1.80;99.90;;;;;;5074835;28;20139;-79
2021/12/27 09:02:12;;;;;;;82.63;28.92;;;1.80;99.90;;;;;;5057070;28;20043;-79
2021/12/27 09:04:38;;;;;;;111.07;31.63;;;1.90;99.90;;;;;;5075026;28;20513;-78
2021/12/27 09:07:04;;;;;;;138.07;35.83;;;1.90;99.90;;;;;;5075436;28;20086;-75
2021/12/27 09:09:31;;;;;;;105.13;28.15;;;1.90;99.90;;;;;;5073600;28;20047;-70
2021/12/27 09:11:56;;;;;;;121.78;30.42;;;1.90;99.90;;;;;;5071323;28;20048;-69
2021/12/27 09:14:22;;;;;;;126.47;31.77;;;1.90;99.90;;;;;;5074853;28;20056;-80
2021/12/27 09:16:48;;;;;;;103.90;30.38;;;2.00;99.90;;;;;;5074670;28;20040;-79
2021/12/27 09:19:14;;;;;;;122.53;32.63;;;2.00;99.90;;;;;;5072921;28;20040;-78
2021/12/27 09:21:40;;;;;;;149.40;34.53;;;2.00;99.90;;;;;;5070578;28;20071;-79
2021/12/27 09:24:06;;;;;;;106.65;29.45;;;2.00;99.90;;;;;;5074384;28;20148;-70
2021/12/27 09:26:32;;;;;;;94.35;29.67;;;2.10;99.90;;;;;;5058709;28;20142;-70
2021/12/27 09:28:58;;;;;;;137.25;32.63;;;2.10;99.90;;;;;;5073824;28;20475;-73
2021/12/27 09:31:24;;;;;;;137.30;33.53;;;2.10;99.90;;;;;;5074296;28;20496;-69
2021/12/27 09:33:50;;;;;;;122.93;30.63;;;2.20;99.90;;;;;;5074193;28;20127;-79
2021/12/27 09:36:15;;;;;;;104.07;30.73;;;2.20;99.90;;;;;;5074119;28;20131;-74
2021/12/27 09:38:41;;;;;;;85.97;28.98;;;2.20;99.90;;;;;;5090941;28;20135;-82
2021/12/27 09:41:07;;;;;;;90.25;27.88;;;2.20;99.90;;;;;;5059244;28;20062;-76
2021/12/27 09:43:34;;;;;;;75.70;27.90;;;2.30;99.90;;;;;;5057904;28;20480;-76
2021/12/27 09:46:00;;;;;;;127.18;30.70;;;2.30;99.90;;;;;;5056969;28;20075;-82
2021/12/27 09:48:25;;;;;;;153.57;33.08;;;2.30;99.90;;;;;;5074946;28;20083;-82
2021/12/27 09:50:54;;;;;;;99.55;30.30;;;2.40;99.90;;;;;;5074212;28;20049;-70
2021/12/27 09:53:20;;;;;;;101.30;30.75;;;2.40;99.90;;;;;;5074416;28;20492;-82
2021/12/27 09:55:46;;;;;;;107.63;29.67;;;2.40;99.90;;;;;;5058237;28;20050;-69
2021/12/27 09:58:11;;;;;;;157.55;35.08;;;2.50;99.90;;;;;;5074355;28;20512;-82
2021/12/27 10:00:42;;;;;;;108.22;29.63;;;2.50;99.90;;;;;;5074775;28;20105;-81
2021/12/27 10:03:09;;;;;;;164.85;32.72;;;2.50;99.90;;;;;;5074145;28;20447;-80
2021/12/27 10:05:35;;;;;;;110.15;29.52;;;2.50;99.90;;;;;;5057319;28;20044;-82
2021/12/27 10:08:01;;;;;;;137.88;32.78;;;2.50;99.90;;;;;;5057733;28;20044;-82
2021/12/27 10:10:27;;;;;;;146.05;32.65;;;2.50;99.90;;;;;;5058114;28;20044;-82
2021/12/27 10:12:53;;;;;;;131.65;31.38;;;2.50;99.90;;;;;;5073391;28;20036;-82
2021/12/27 10:15:22;;;;;;;155.40;32.55;;;2.60;99.90;;;;;;5074807;28;20742;-82
2021/12/27 10:17:48;;;;;;;131.93;32.65;;;2.60;99.90;;;;;;5071092;28;20036;-78
2021/12/27 10:20:20;;;;;;;154.18;35.03;;;2.60;99.90;;;;;;5073982;28;20051;-82
2021/12/27 10:22:49;;;;;;;87.80;32.85;;;2.60;99.90;;;;;;5074551;28;20419;-81
2021/12/27 10:25:22;;;;;;;109.10;32.95;;;2.60;99.90;;;;;;5073674;28;20097;-82
2021/12/27 10:27:53;;;;;;;110.50;30.20;;;2.70;99.90;;;;;;5074426;28;20052;-70
2021/12/27 10:30:25;;;;;;;90.93;28.23;;;2.80;99.90;;;;;;5073933;28;20052;-70
2021/12/27 10:33:09;;;;;;;102.78;29.17;;;2.80;99.90;;;;;;5073697;28;20044;-81
2021/12/27 10:36:08;;;;;;;109.38;30.23;;;2.90;99.90;;;;;;5073220;28;20385;-81
2021/12/27 10:38:41;;;;;;;112.50;30.67;;;2.90;99.90;;;;;;5019224;28;20097;-81
2021/12/27 10:41:11;;;;;;;131.73;30.38;;;2.90;99.90;;;;;;5074096;28;20044;-70
2021/12/27 10:43:44;;;;;;;95.75;31.50;;;3.00;99.90;;;;;;5073928;28;20083;-82
2021/12/27 10:46:20;;;;;;;118.72;32.85;;;3.00;99.90;;;;;;5073111;28;20127;-82
2021/12/27 10:48:59;;;;;;;118.28;31.58;;;3.10;99.90;;;;;;5073917;28;20060;-81
2021/12/27 10:51:27;;;;;;;81.25;28.13;;;3.20;99.90;;;;;;5053907;28;20047;-81
2021/12/27 10:53:55;;;;;;;105.85;30.10;;;3.20;99.90;;;;;;5039424;28;20032;-71
2021/12/27 10:56:24;;;;;;;131.93;29.52;;;3.20;99.90;;;;;;5074031;28;20048;-82
2021/12/27 10:58:59;;;;;;;116.88;28.73;;;3.20;99.90;;;;;;5072120;28;20131;-81
2021/12/27 11:01:28;;;;;;;97.07;29.67;;;3.20;99.90;;;;;;5072971;28;20485;-82
2021/12/27 11:04:01;;;;;;;133.60;32.53;;;3.20;99.90;;;;;;5072962;28;20126;-82
2021/12/27 11:06:28;;;;;;;124.32;28.55;;;3.30;99.90;;;;;;5073928;28;20040;-71
2021/12/27 11:08:55;;;;;;;125.65;31.13;;;3.40;99.90;;;;;;5054657;28;20043;-73
2021/12/27 11:11:23;;;;;;;152.63;32.88;;;3.40;99.90;;;;;;5051796;28;20048;-80
2021/12/27 11:13:56;;;;;;;97.97;27.90;;;3.40;99.90;;;;;;5036013;28;20045;-72
2021/12/27 11:16:22;;;;;;;102.03;30.58;;;3.50;99.90;;;;;;5039139;28;20511;-81
2021/12/27 11:18:50;;;;;;;134.77;30.92;;;3.50;99.90;;;;;;5037034;28;20044;-81
2021/12/27 11:21:23;;;;;;;140.10;33.20;;;3.40;99.90;;;;;;5043383;28;20126;-69
2021/12/27 11:23:51;;;;;;;149.02;33.75;;;3.50;99.90;;;;;;5055967;28;20506;-80
2021/12/27 11:26:29;;;;;;;169.85;33.55;;;3.40;99.90;;;;;;5073623;28;20056;-73
2021/12/27 11:29:14;;;;;;;127.90;30.27;;;3.50;99.90;;;;;;5056065;28;20071;-81
2021/12/27 11:31:40;;;;;;;148.77;32.72;;;3.40;99.90;;;;;;5072612;28;20031;-73
2021/12/27 11:34:08;;;;;;;120.70;30.27;;;3.50;99.90;;;;;;5056586;28;20094;-80
2021/12/27 11:36:36;;;;;;;126.15;30.58;;;3.50;99.90;;;;;;5071655;28;20048;-80
2021/12/27 11:39:25;;;;;;;139.40;33.20;;;3.50;99.90;;;;;;5049942;28;20392;-82
2021/12/27 11:41:59;;;;;;;165.52;32.60;;;3.50;99.90;;;;;;5059107;28;20172;-81
2021/12/27 11:44:44;;;;;;;122.85;32.83;;;3.50;99.90;;;;;;5071685;28;20158;-81
2021/12/27 11:47:11;;;;;;;112.88;32.05;;;3.50;99.90;;;;;;5072922;28;20051;-80
2021/12/27 11:49:42;;;;;;;135.10;33.22;;;3.60;99.90;;;;;;5072607;28;20488;-81
2021/12/27 11:52:38;;;;;;;156.67;34.17;;;3.60;99.90;;;;;;5073382;28;20047;-70
2021/12/27 11:55:14;;;;;;;125.82;34.30;;;3.60;99.90;;;;;;5048682;28;20286;-79
2021/12/27 11:57:53;;;;;;;89.72;30.52;;;3.60;99.90;;;;;;5071544;28;20048;-81
2021/12/27 12:00:26;;;;;;;99.60;33.78;;;3.60;99.90;;;;;;5072655;28;20055;-73
2021/12/27 12:03:01;;;;;;;;;;;3.70;99.90;;;;;;5073125;28;20048;-81
2021/12/27 12:05:42;;;;;;;131.77;33.35;;;3.80;99.90;;;;;;5072969;28;19920;-80
2021/12/27 12:08:09;;;;;;;125.45;34.05;;;3.80;99.90;;;;;;5051980;28;20075;-71
2021/12/27 12:10:37;;;;;;;131.95;35.17;;;3.80;99.90;;;;;;5057845;28;20036;-81
2021/12/27 12:13:26;;;;;;;116.10;33.63;;;3.80;99.90;;;;;;5077229;28;20055;-80
2021/12/27 12:16:11;;;;;;;95.47;32.25;;;3.80;99.90;;;;;;5076694;28;20119;-78
2021/12/27 12:18:41;;;;;;;88.93;32.08;;;3.90;99.90;;;;;;5076457;28;20047;-79
2021/12/27 12:21:32;;;;;;;117.00;34.10;;;3.80;99.90;;;;;;5077324;28;20047;-79
2021/12/27 12:24:02;;;;;;;105.25;31.60;;;3.90;99.90;;;;;;5093586;28;20476;-78
2021/12/27 12:26:44;;;;;;;109.78;32.90;;;3.80;99.90;;;;;;5072613;28;20550;-71
2021/12/27 12:29:10;;;;;;;124.22;33.90;;;3.80;99.90;;;;;;5070893;28;20040;-78
2021/12/27 12:31:36;;;;;;;91.22;31.02;;;3.80;99.90;;;;;;5076385;28;20040;-78
2021/12/27 12:34:11;;;;;;;96.80;32.65;;;3.90;99.90;;;;;;5070911;28;20051;-75
2021/12/27 12:36:55;;;;;;;110.47;33.75;;;3.90;99.90;;;;;;5076312;28;20051;-75
2021/12/27 12:39:24;;;;;;;70.72;30.58;;;3.90;99.90;;;;;;5059054;28;20086;-76
2021/12/27 12:42:03;;;;;;;93.07;33.83;;;4.10;99.90;;;;;;5074723;28;20159;-77
2021/12/27 12:44:28;;;;;;;74.07;31.70;;;4.10;99.90;;;;;;5059590;28;20084;-76